createdAt,value
2023-04-09T00:03:58.413Z,4.86
2023-04-09T00:09:00.809Z,4.82
2023-04-09T00:14:02.809Z,4.79
2023-04-09T00:19:04.562Z,4.79
2023-04-09T00:24:06.468Z,4.80
2023-04-09T00:29:08.212Z,4.78
2023-04-09T00:34:10.412Z,4.73
2023-04-09T00:39:12.411Z,4.69
2023-04-09T00:44:14.352Z,4.69
2023-04-09T00:49:16.432Z,4.71
2023-04-09T00:54:18.862Z,4.73
2023-04-09T00:59:20.890Z,4.73
2023-04-09T01:04:24.812Z,4.74
2023-04-09T01:09:32.870Z,4.76
2023-04-09T01:14:57.815Z,4.81
2023-04-09T01:19:59.969Z,4.82
2023-04-09T01:25:18.255Z,4.86
2023-04-09T01:30:22.034Z,4.84
2023-04-09T01:35:26.686Z,4.81
2023-04-09T01:40:28.696Z,4.77
2023-04-09T01:45:30.556Z,4.76
2023-04-09T01:50:33.342Z,4.73
2023-04-09T01:55:35.558Z,4.71
2023-04-09T02:00:47.086Z,4.72
2023-04-09T02:06:12.847Z,4.71
2023-04-09T02:11:16.616Z,4.67
2023-04-09T02:16:19.481Z,4.65
2023-04-09T02:21:22.851Z,4.63
2023-04-09T02:26:24.813Z,4.62
2023-04-09T02:31:26.655Z,4.60
2023-04-09T02:36:29.072Z,4.57
2023-04-09T02:41:30.949Z,4.57
2023-04-09T02:46:32.898Z,4.56
2023-04-09T02:51:36.085Z,4.56
2023-04-09T02:56:38.177Z,4.55
2023-04-09T03:01:40.163Z,4.52
2023-04-09T03:06:42.073Z,4.49
2023-04-09T03:11:43.873Z,4.47
2023-04-09T03:16:45.672Z,4.44
2023-04-09T03:21:49.386Z,4.40
2023-04-09T03:26:53.682Z,4.39
2023-04-09T03:31:55.905Z,4.39
2023-04-09T03:36:58.549Z,4.41
2023-04-09T03:42:04.595Z,4.43
2023-04-09T03:47:17.641Z,4.46
2023-04-09T03:52:19.655Z,4.51
2023-04-09T03:57:29.335Z,4.52
2023-04-09T04:02:33.829Z,4.55
2023-04-09T04:07:39.377Z,4.58
2023-04-09T04:12:46.071Z,4.57
2023-04-09T04:18:01.346Z,4.58
2023-04-09T04:23:22.437Z,4.58
2023-04-09T04:28:38.510Z,4.59
2023-04-09T04:33:42.960Z,4.63
2023-04-09T04:38:50.685Z,4.67
2023-04-09T04:44:01.505Z,4.70
2023-04-09T04:49:03.594Z,4.73
2023-04-09T04:54:07.556Z,4.79
2023-04-09T04:59:09.671Z,4.82
2023-04-09T05:04:24.147Z,4.87
2023-04-09T05:09:26.410Z,4.90
2023-04-09T05:14:35.806Z,4.96
2023-04-09T05:19:37.719Z,5.00
2023-04-09T05:24:39.904Z,5.03
2023-04-09T05:29:42.222Z,5.10
2023-04-09T05:34:45.055Z,5.20
2023-04-09T05:39:47.073Z,5.29
2023-04-09T05:44:49.072Z,5.46
2023-04-09T05:49:54.658Z,5.64
2023-04-09T05:54:57.202Z,5.77
2023-04-09T06:00:08.486Z,5.93
2023-04-09T06:05:18.519Z,6.09
2023-04-09T06:10:22.165Z,6.22
2023-04-09T06:15:24.441Z,6.31
2023-04-09T06:20:26.290Z,6.40
2023-04-09T06:25:28.126Z,6.44
2023-04-09T06:30:31.990Z,6.49
2023-04-09T06:35:34.015Z,6.55
2023-04-09T06:40:39.292Z,6.61
2023-04-09T06:45:41.249Z,6.71
2023-04-09T06:50:44.436Z,6.78
2023-04-09T06:55:46.391Z,6.82
2023-04-09T07:00:48.270Z,6.92
2023-04-09T07:05:50.673Z,6.99
2023-04-09T07:10:52.818Z,7.08
2023-04-09T07:15:54.565Z,7.22
2023-04-09T07:20:56.429Z,7.38
2023-04-09T07:25:58.301Z,7.46
2023-04-09T07:31:04.985Z,7.61
2023-04-09T07:36:07.103Z,7.76
2023-04-09T07:41:11.639Z,7.88
2023-04-09T07:46:19.872Z,7.97
2023-04-09T07:51:22.244Z,8.09
2023-04-09T07:56:24.272Z,8.13
2023-04-09T08:01:26.659Z,8.22
2023-04-09T08:06:28.414Z,8.30
2023-04-09T08:11:30.623Z,8.25
2023-04-09T08:16:33.202Z,8.22
2023-04-09T08:21:38.431Z,8.35
2023-04-09T08:26:41.610Z,8.63
2023-04-09T08:31:43.603Z,8.77
2023-04-09T08:36:46.590Z,8.94
2023-04-09T08:41:48.700Z,9.05
2023-04-09T08:46:51.148Z,9.08
2023-04-09T08:51:52.980Z,9.14
2023-04-09T08:56:54.740Z,9.19
2023-04-09T09:02:11.334Z,9.24
2023-04-09T09:07:14.609Z,9.33
2023-04-09T09:12:41.516Z,9.42
2023-04-09T09:17:54.998Z,9.35
2023-04-09T09:22:57.075Z,9.42
2023-04-09T09:28:09.653Z,9.54
2023-04-09T09:33:12.318Z,9.69
2023-04-09T09:38:16.043Z,9.84
2023-04-09T09:43:18.096Z,10.00
2023-04-09T09:48:20.016Z,10.10
2023-04-09T09:53:24.780Z,10.26
2023-04-09T09:58:34.142Z,10.32
2023-04-09T10:03:39.761Z,10.31
2023-04-09T10:08:44.090Z,10.22
2023-04-09T10:13:58.620Z,10.21
2023-04-09T10:19:01.688Z,10.17
2023-04-09T10:24:06.595Z,10.18
2023-04-09T10:29:14.029Z,10.23
2023-04-09T10:34:24.055Z,10.31
2023-04-09T10:39:32.111Z,10.34
2023-04-09T10:44:36.391Z,10.38
2023-04-09T10:49:40.537Z,10.40
2023-04-09T10:54:46.746Z,10.41
2023-04-09T10:59:54.319Z,10.51
2023-04-09T11:05:23.294Z,10.62
2023-04-09T11:10:25.257Z,10.74
2023-04-09T11:15:27.412Z,10.84
2023-04-09T11:20:31.342Z,10.87
2023-04-09T11:25:35.390Z,10.93
2023-04-09T11:30:37.642Z,11.14
2023-04-09T11:35:39.703Z,11.31
2023-04-09T11:40:49.922Z,11.45
2023-04-09T11:45:52.137Z,11.47
2023-04-09T11:50:54.366Z,11.55
2023-04-09T11:55:56.459Z,11.62
2023-04-09T12:00:59.365Z,11.68
2023-04-09T12:06:03.112Z,11.77
2023-04-09T12:11:30.247Z,11.86
2023-04-09T12:16:35.906Z,12.00
2023-04-09T12:21:53.104Z,12.19
2023-04-09T12:26:54.971Z,12.35
2023-04-09T12:31:56.787Z,12.47
2023-04-09T12:36:58.642Z,12.59
2023-04-09T12:42:01.185Z,12.68
2023-04-09T12:47:03.014Z,12.63
2023-04-09T12:52:04.887Z,12.49
2023-04-09T12:57:07.047Z,12.50
2023-04-09T13:02:11.890Z,12.53
2023-04-09T13:07:16.122Z,12.53
2023-04-09T13:12:18.460Z,12.53
2023-04-09T13:17:20.412Z,12.55
2023-04-09T13:22:22.322Z,12.56
2023-04-09T13:27:24.241Z,12.58
2023-04-09T13:32:26.181Z,12.62
2023-04-09T13:37:28.091Z,12.63
2023-04-09T13:42:29.996Z,12.59
2023-04-09T13:47:31.957Z,12.56
2023-04-09T13:52:33.890Z,12.54
2023-04-09T13:57:35.802Z,12.60
2023-04-09T14:02:37.849Z,12.73
2023-04-09T14:07:39.706Z,12.68
2023-04-09T14:12:41.878Z,12.59
2023-04-09T14:17:44.175Z,12.54
2023-04-09T14:22:49.227Z,12.44
2023-04-09T14:27:52.204Z,12.42
2023-04-09T14:32:54.022Z,12.49
2023-04-09T14:37:55.966Z,12.61
2023-04-09T14:42:59.420Z,12.52
2023-04-09T14:48:01.420Z,12.50
2023-04-09T14:53:05.967Z,12.64
2023-04-09T14:58:08.280Z,12.74
2023-04-09T15:03:10.470Z,12.81
2023-04-09T15:08:13.358Z,12.80
2023-04-09T15:13:15.595Z,12.91
2023-04-09T15:18:17.773Z,12.99
2023-04-09T15:23:20.463Z,13.00
2023-04-09T15:28:22.227Z,12.99
2023-04-09T15:33:24.144Z,13.03
2023-04-09T15:38:26.219Z,13.11
2023-04-09T15:43:28.081Z,13.14
2023-04-09T15:48:29.942Z,13.04
2023-04-09T15:53:32.094Z,13.02
2023-04-09T15:58:34.130Z,12.98
2023-04-09T16:03:42.330Z,12.99
2023-04-09T16:08:44.291Z,13.06
2023-04-09T16:13:46.315Z,13.04
2023-04-09T16:18:48.130Z,12.91
2023-04-09T16:23:49.932Z,12.85
2023-04-09T16:28:52.029Z,12.87
2023-04-09T16:33:54.360Z,12.89
2023-04-09T16:38:56.317Z,12.84
2023-04-09T16:43:58.347Z,12.77
2023-04-09T16:49:00.357Z,12.71
2023-04-09T16:54:04.333Z,12.73
2023-04-09T16:59:06.111Z,12.61
2023-04-09T17:04:08.059Z,12.45
2023-04-09T17:09:09.952Z,12.34
2023-04-09T17:14:12.181Z,12.26
2023-04-09T17:19:14.072Z,12.21
2023-04-09T17:24:15.974Z,12.16
2023-04-09T17:29:20.695Z,12.08
2023-04-09T17:34:23.217Z,12.00
2023-04-09T17:39:25.225Z,11.89
2023-04-09T17:44:27.269Z,11.79
2023-04-09T17:49:32.637Z,11.71
2023-04-09T17:54:35.155Z,11.63
2023-04-09T17:59:38.209Z,11.54
2023-04-09T18:04:43.357Z,11.44
2023-04-09T18:09:45.331Z,11.37
2023-04-09T18:14:49.292Z,11.29
2023-04-09T18:19:54.528Z,11.15
2023-04-09T18:24:56.635Z,11.03
2023-04-09T18:29:59.375Z,10.94
2023-04-09T18:35:02.469Z,10.86
2023-04-09T18:40:04.735Z,10.80
2023-04-09T18:45:06.959Z,10.73
2023-04-09T18:50:09.633Z,10.66
2023-04-09T18:55:11.868Z,10.61
2023-04-09T19:00:14.250Z,10.58
2023-04-09T19:05:16.396Z,10.55
2023-04-09T19:10:18.240Z,10.52
2023-04-09T19:15:26.367Z,10.52
2023-04-09T19:20:28.815Z,10.52
2023-04-09T19:25:31.415Z,10.50
2023-04-09T19:30:33.204Z,10.50
2023-04-09T19:35:38.044Z,10.54
2023-04-09T19:40:39.849Z,10.56
2023-04-09T19:45:42.750Z,10.58
2023-04-09T19:50:45.438Z,10.60
2023-04-09T19:55:47.350Z,10.60
2023-04-09T20:00:49.974Z,10.60
2023-04-09T20:05:52.014Z,10.55
2023-04-09T20:10:55.008Z,10.49
2023-04-09T20:15:57.231Z,10.44
2023-04-09T20:20:59.296Z,10.44
2023-04-09T20:26:02.702Z,10.47
2023-04-09T20:31:05.149Z,10.50
2023-04-09T20:36:27.325Z,10.54
2023-04-09T20:41:29.770Z,10.52
2023-04-09T20:46:31.793Z,10.50
2023-04-09T20:51:33.869Z,10.49
2023-04-09T20:56:36.010Z,10.42
2023-04-09T21:01:37.944Z,10.31
2023-04-09T21:06:40.571Z,10.22
2023-04-09T21:11:42.348Z,10.11
2023-04-09T21:16:44.320Z,10.02
2023-04-09T21:21:46.306Z,9.96
2023-04-09T21:26:50.980Z,9.91
2023-04-09T21:31:54.244Z,9.86
2023-04-09T21:36:58.875Z,9.82
2023-04-09T21:42:00.714Z,9.85
2023-04-09T21:47:07.589Z,9.87
2023-04-09T21:52:14.893Z,9.88
2023-04-09T21:57:17.183Z,9.85
2023-04-09T22:02:19.271Z,9.81
2023-04-09T22:07:21.268Z,9.75
2023-04-09T22:12:23.234Z,9.67
2023-04-09T22:17:25.095Z,9.60
2023-04-09T22:22:27.256Z,9.53
2023-04-09T22:27:29.168Z,9.48
2023-04-09T22:32:33.538Z,9.41
2023-04-09T22:37:36.376Z,9.35
2023-04-09T22:42:40.150Z,9.30
2023-04-09T22:47:42.086Z,9.26
2023-04-09T22:52:44.156Z,9.22
2023-04-09T22:57:46.168Z,9.18
2023-04-09T23:02:48.162Z,9.13
2023-04-09T23:07:51.452Z,9.09
2023-04-09T23:12:53.372Z,9.03
2023-04-09T23:17:55.587Z,8.98
2023-04-09T23:22:57.666Z,8.91
2023-04-09T23:27:59.562Z,8.83
2023-04-09T23:33:01.543Z,8.76
2023-04-09T23:38:03.531Z,8.70
2023-04-09T23:43:05.493Z,8.65
2023-04-09T23:48:08.976Z,8.59
2023-04-09T23:53:11.038Z,8.54
2023-04-09T23:58:14.271Z,8.49
